Time;durP1;ratioP1;P1;durP2;ratioP2;P2;SDS_P1;SDS_P2;PMS_P1;PMS_P2;Temp;Humidity;BMP_temperature;BMP_pressure;BME280_temperature;BME280_humidity;BME280_pressure;Samples;Min_cycle;Max_cycle;Signal;HPM_P1;HPM_P2
2021/03/17 00:01:32;;;;;;;18.88;14.32;;;;;;;5.56;72.55;99420.22;5072128;28;20567;-62
2021/03/17 00:04:19;;;;;;;20.00;15.35;;;;;;;5.59;72.43;99417.31;5072219;28;20059;-62
2021/03/17 00:07:05;;;;;;;20.55;14.95;;;;;;;5.54;72.33;99413.44;5072353;28;20106;-62
2021/03/17 00:09:50;;;;;;;18.88;14.55;;;;;;;5.57;72.26;99413.16;5072148;28;20059;-63
2021/03/17 00:12:35;;;;;;;18.75;14.52;;;;;;;5.56;72.45;99404.47;5072004;28;20494;-62
2021/03/17 00:15:21;;;;;;;17.13;13.52;;;;;;;5.55;72.30;99408.09;5072328;28;20052;-62
2021/03/17 00:18:07;;;;;;;17.77;13.77;;;;;;;5.62;72.49;99403.88;5071981;28;20059;-62
2021/03/17 00:20:53;;;;;;;17.27;13.00;;;;;;;5.68;72.31;99407.72;5072437;28;20051;-63
2021/03/17 00:23:39;;;;;;;18.25;13.43;;;;;;;5.71;72.34;99407.41;5072186;28;20080;-63
2021/03/17 00:26:24;;;;;;;15.98;13.15;;;;;;;5.73;72.54;99405.50;5072097;28;20087;-63
2021/03/17 00:29:09;;;;;;;16.48;12.63;;;;;;;5.71;72.34;99405.66;5071921;28;20048;-63
2021/03/17 00:31:55;;;;;;;14.88;11.88;;;;;;;5.65;72.23;99402.78;5071756;28;20072;-62
2021/03/17 00:34:40;;;;;;;14.00;11.30;;;;;;;5.69;72.05;99397.09;5071446;28;20055;-63
2021/03/17 00:37:26;;;;;;;14.60;11.57;;;;;;;5.66;72.22;99397.38;5071832;28;20059;-62
2021/03/17 00:40:13;;;;;;;13.77;11.40;;;;;;;5.65;72.11;99398.34;5071850;28;20055;-62
2021/03/17 00:42:59;;;;;;;12.88;10.60;;;;;;;5.66;72.00;99391.31;5071990;28;20110;-63
2021/03/17 00:45:44;;;;;;;15.25;12.35;;;;;;;5.61;72.17;99391.75;5071771;28;20145;-62
2021/03/17 00:48:22;;;;;;;13.50;11.10;;;;;;;5.65;72.25;99397.53;5072213;28;20048;-63
2021/03/17 00:50:56;;;;;;;13.27;11.00;;;;;;;5.65;72.09;99392.28;5070457;28;20391;-63
2021/03/17 00:53:28;;;;;;;12.35;10.90;;;;;;;5.64;72.14;99394.09;5071529;28;20053;-63
2021/03/17 00:55:59;;;;;;;14.18;11.07;;;;;;;5.62;72.26;99387.31;5070083;28;20048;-63
2021/03/17 00:58:34;;;;;;;15.00;11.20;;;;;;;5.63;72.29;99386.34;5070094;28;20105;-64
2021/03/17 01:01:01;;;;;;;12.13;10.43;;;;;;;5.63;72.36;99386.34;5070027;28;20050;-63
2021/03/17 01:03:28;;;;;;;12.80;10.52;;;;;;;5.60;72.06;99381.41;5071477;28;20045;-62
2021/03/17 01:05:55;;;;;;;13.43;10.40;;;;;;;5.60;72.45;99386.66;5069983;28;20075;-62
2021/03/17 01:08:22;;;;;;;14.05;9.90;;;;;;;5.62;72.17;99379.44;5071274;28;20037;-63
2021/03/17 01:10:50;;;;;;;11.50;9.75;;;;;;;5.59;72.14;99380.59;5071267;28;20434;-63
2021/03/17 01:13:17;;;;;;;12.93;9.70;;;;;;;5.59;72.25;99377.13;5071484;28;20049;-63
2021/03/17 01:15:44;;;;;;;11.50;9.73;;;;;;;5.57;72.22;99376.44;5071206;28;20123;-63
2021/03/17 01:18:12;;;;;;;11.45;10.07;;;;;;;5.57;72.13;99372.03;5071248;28;20056;-63
2021/03/17 01:20:39;;;;;;;11.27;9.45;;;;;;;5.55;72.30;99379.22;5071336;28;20060;-62
2021/03/17 01:23:07;;;;;;;12.30;9.77;;;;;;;5.59;72.07;99375.34;5071158;28;20053;-63
2021/03/17 01:25:35;;;;;;;10.32;8.60;;;;;;;5.60;71.82;99384.03;5073999;28;20052;-63
2021/03/17 01:28:04;;;;;;;11.07;9.30;;;;;;;5.61;71.94;99383.06;5074666;28;20607;-63
2021/03/17 01:30:34;;;;;;;11.95;9.00;;;;;;;5.64;71.78;99385.41;5074633;28;20047;-63
2021/03/17 01:33:02;;;;;;;11.10;9.57;;;;;;;5.63;71.85;99384.56;5074817;28;20040;-62
2021/03/17 01:35:29;;;;;;;11.02;9.50;;;;;;;5.66;71.87;99380.81;5074389;28;20048;-63
2021/03/17 01:37:56;;;;;;;11.27;9.13;;;;;;;5.66;71.98;99381.63;5074428;28;20399;-63
2021/03/17 01:40:24;;;;;;;13.50;10.63;;;;;;;5.61;72.22;99377.81;5074601;28;20052;-62
2021/03/17 01:42:51;;;;;;;12.07;10.20;;;;;;;5.56;72.30;99380.88;5082754;28;20054;-64
2021/03/17 01:45:19;;;;;;;12.90;10.55;;;;;;;5.58;72.25;99376.28;5082992;28;20410;-63
2021/03/17 01:47:47;;;;;;;13.27;11.07;;;;;;;5.59;72.26;99382.34;5075642;28;20048;-63
2021/03/17 01:50:16;;;;;;;17.10;13.55;;;;;;;5.57;72.28;99385.13;5074378;28;20487;-63
2021/03/17 01:52:43;;;;;;;14.50;11.75;;;;;;;5.56;72.56;99380.88;5074573;28;20494;-63
2021/03/17 01:55:11;;;;;;;15.88;12.30;;;;;;;5.59;72.39;99383.22;5074220;28;20044;-63
2021/03/17 01:57:38;;;;;;;17.02;12.88;;;;;;;5.59;72.73;99379.75;5074102;28;20048;-63
2021/03/17 02:00:08;;;;;;;19.75;14.00;;;;;;;5.61;72.69;99375.19;5074213;28;20509;-63
2021/03/17 02:02:39;;;;;;;14.85;12.32;;;;;;;5.67;72.69;99385.06;5074160;28;20409;-63
2021/03/17 02:05:09;;;;;;;16.10;12.40;;;;;;;5.65;72.64;99382.63;5073978;28;20062;-63
2021/03/17 02:07:36;;;;;;;15.88;12.32;;;;;;;5.63;72.53;99386.34;5073961;28;20053;-63
2021/03/17 02:10:07;;;;;;;17.05;13.20;;;;;;;5.63;72.65;99384.56;5074049;28;20052;-63
2021/03/17 02:12:42;;;;;;;16.52;12.27;;;;;;;5.62;72.57;99376.81;5073885;28;20051;-63
2021/03/17 02:15:44;;;;;;;17.40;13.00;;;;;;;5.63;72.63;99378.47;5073930;28;20044;-63
2021/03/17 02:18:22;;;;;;;18.90;13.38;;;;;;;5.62;72.68;99382.91;5073851;28;20040;-63
2021/03/17 02:21:15;;;;;;;16.70;12.93;;;;;;;5.63;72.74;99381.09;5073906;28;20044;-61
2021/03/17 02:23:51;;;;;;;18.20;13.80;;;;;;;5.66;72.91;99378.19;5073729;28;20036;-61
2021/03/17 02:26:52;;;;;;;16.45;13.07;;;;;;;5.60;72.71;99379.59;5073753;28;20045;-61
2021/03/17 02:29:47;;;;;;;19.23;14.82;;;;;;;5.60;72.85;99381.41;5057023;28;20595;-62
2021/03/17 02:32:22;;;;;;;18.92;14.48;;;;;;;5.60;72.82;99384.03;5073528;28;20037;-62
2021/03/17 02:34:53;;;;;;;19.08;14.05;;;;;;;5.61;72.86;99386.50;5073663;28;20470;-61
2021/03/17 02:37:24;;;;;;;21.63;15.52;;;;;;;5.52;72.87;99386.56;5072719;28;20041;-62
2021/03/17 02:39:57;;;;;;;20.35;15.13;;;;;;;5.55;72.98;99391.50;5073383;28;20048;-62
2021/03/17 02:42:29;;;;;;;23.50;16.60;;;;;;;5.58;72.97;99380.72;5073301;28;20051;-64
2021/03/17 02:45:03;;;;;;;22.05;16.08;;;;;;;5.58;73.14;99381.53;5073279;28;20603;-63
2021/03/17 02:47:32;;;;;;;26.00;18.17;;;;;;;5.49;73.11;99386.84;5073223;28;20384;-64
2021/03/17 02:50:02;;;;;;;22.80;16.83;;;;;;;5.48;73.24;99383.41;5073292;28;20494;-63
2021/03/17 02:52:33;;;;;;;23.80;17.65;;;;;;;5.39;73.40;99385.09;5071845;28;20128;-63
2021/03/17 02:55:02;;;;;;;23.45;17.05;;;;;;;5.36;73.47;99385.38;5072914;28;20357;-63
2021/03/17 02:57:33;;;;;;;25.15;18.15;;;;;;;5.37;73.47;99389.66;5072887;28;20049;-63
2021/03/17 03:00:00;;;;;;;24.65;17.73;;;;;;;5.37;73.59;99387.03;5073114;28;20032;-62
2021/03/17 03:02:28;;;;;;;24.95;18.08;;;;;;;5.40;73.53;99393.78;5072962;28;20055;-63
2021/03/17 03:04:56;;;;;;;25.67;17.63;;;;;;;5.40;73.75;99392.00;5072842;28;20040;-63
2021/03/17 03:07:24;;;;;;;24.45;18.30;;;;;;;5.35;73.77;99396.03;5072691;28;20409;-63
2021/03/17 03:09:54;;;;;;;25.80;18.20;;;;;;;5.38;73.81;99388.66;5072814;28;20498;-63
2021/03/17 03:12:22;;;;;;;27.25;18.95;;;;;;;5.36;74.07;99392.44;5072919;28;20406;-63
2021/03/17 03:14:49;;;;;;;28.77;20.23;;;;;;;5.38;73.69;99396.53;5072536;28;20429;-63
2021/03/17 03:17:18;;;;;;;25.02;18.13;;;;;;;5.38;74.03;99399.16;5072753;28;20106;-63
2021/03/17 03:19:49;;;;;;;28.50;19.00;;;;;;;5.38;73.98;99395.72;5072506;28;20398;-63
2021/03/17 03:22:16;;;;;;;28.13;19.27;;;;;;;5.37;73.91;99407.19;5071568;28;20044;-62
2021/03/17 03:24:49;;;;;;;27.38;19.52;;;;;;;5.36;74.08;99403.75;5072595;28;20496;-62
2021/03/17 03:27:16;;;;;;;28.10;19.85;;;;;;;5.37;74.15;99401.94;5072617;28;20060;-63
2021/03/17 03:29:46;;;;;;;28.25;19.55;;;;;;;5.42;74.03;99405.75;5071248;28;20045;-62
2021/03/17 03:32:14;;;;;;;27.83;19.92;;;;;;;5.43;74.15;99409.25;5072343;28;20041;-62
2021/03/17 03:34:41;;;;;;;27.98;18.92;;;;;;;5.42;74.14;99405.75;5072332;28;20110;-63
2021/03/17 03:37:08;;;;;;;27.45;18.75;;;;;;;5.33;74.07;99395.34;5072357;28;20074;-63
2021/03/17 03:39:35;;;;;;;26.85;19.45;;;;;;;5.30;74.17;99406.91;5072172;28;20054;-62
2021/03/17 03:42:03;;;;;;;26.63;18.88;;;;;;;5.30;74.14;99404.31;5072248;28;20037;-63
2021/03/17 03:44:30;;;;;;;29.48;19.75;;;;;;;5.29;74.41;99413.13;5072024;28;20052;-63
2021/03/17 03:46:57;;;;;;;26.98;19.30;;;;;;;5.31;74.54;99413.84;5072143;28;20048;-63
2021/03/17 03:49:24;;;;;;;29.77;19.95;;;;;;;5.28;74.66;99416.75;5072022;28;20110;-62
2021/03/17 03:51:59;;;;;;;26.27;18.45;;;;;;;5.32;74.62;99415.47;5072050;28;20041;-63
2021/03/17 03:54:37;;;;;;;27.20;18.45;;;;;;;5.30;74.69;99417.41;5071953;28;20076;-63
2021/03/17 03:57:13;;;;;;;27.77;19.55;;;;;;;5.31;74.64;99420.88;5072125;28;20051;-63
2021/03/17 03:59:42;;;;;;;27.23;18.25;;;;;;;5.34;74.39;99423.19;5072558;28;20044;-62
2021/03/17 04:02:13;;;;;;;29.83;19.92;;;;;;;5.33;74.40;99422.38;5072680;28;20040;-63
2021/03/17 04:04:45;;;;;;;34.05;19.58;;;;;;;5.26;74.55;99425.72;5072059;28;20045;-62
2021/03/17 04:07:15;;;;;;;30.55;19.83;;;;;;;5.28;74.91;99424.59;5072147;28;20045;-62
2021/03/17 04:09:45;;;;;;;26.42;18.98;;;;;;;5.30;74.90;99424.44;5070521;28;20048;-62
2021/03/17 04:12:14;;;;;;;25.88;17.70;;;;;;;5.21;74.41;99429.59;5072112;28;20051;-62
2021/03/17 04:14:47;;;;;;;23.60;16.90;;;;;;;5.10;74.68;99435.03;5071783;28;20041;-63
2021/03/17 04:17:19;;;;;;;21.85;15.85;;;;;;;5.15;74.85;99431.97;5072306;28;20045;-63
2021/03/17 04:19:50;;;;;;;20.33;15.07;;;;;;;5.20;74.84;99438.41;5071959;28;20045;-62
2021/03/17 04:22:18;;;;;;;18.52;13.77;;;;;;;5.17;74.09;99441.31;5070660;28;20067;-63
2021/03/17 04:24:46;;;;;;;17.75;13.82;;;;;;;5.21;74.32;99440.06;5087160;28;20047;-63
2021/03/17 04:27:14;;;;;;;28.55;21.98;;;;;;;5.27;74.20;99441.31;5071869;28;20089;-63
2021/03/17 04:29:42;;;;;;;22.55;16.48;;;;;;;5.13;73.62;99447.81;5071787;28;20132;-63
2021/03/17 04:32:11;;;;;;;17.83;13.30;;;;;;;4.98;73.74;99446.63;5071767;28;20044;-64
2021/03/17 04:34:38;;;;;;;19.65;13.38;;;;;;;5.03;74.09;99447.03;5070297;28;20083;-64
2021/03/17 04:37:05;;;;;;;18.55;13.23;;;;;;;5.11;74.10;99451.56;5071874;28;20040;-63
2021/03/17 04:39:32;;;;;;;16.73;12.55;;;;;;;5.12;73.84;99453.22;5071658;28;20578;-63
2021/03/17 04:42:00;;;;;;;16.25;11.55;;;;;;;5.08;73.31;99450.03;5070425;28;20044;-63
2021/03/17 04:44:28;;;;;;;14.27;10.25;;;;;;;5.06;73.14;99453.75;5070325;28;20044;-63
2021/03/17 04:47:16;;;;;;;17.65;11.85;;;;;;;4.97;73.28;99448.41;5070336;28;20037;-63
2021/03/17 04:49:45;;;;;;;15.13;11.50;;;;;;;4.93;72.89;99462.75;5071434;28;20044;-63
2021/03/17 04:52:13;;;;;;;14.02;10.90;;;;;;;4.88;73.23;99454.50;5071445;28;20064;-63
2021/03/17 04:54:40;;;;;;;13.30;10.00;;;;;;;4.75;73.25;99453.13;5070093;28;20055;-63
2021/03/17 04:57:12;;;;;;;15.30;11.25;;;;;;;4.85;73.53;99460.00;5071617;28;20048;-64
2021/03/17 04:59:41;;;;;;;13.55;10.35;;;;;;;4.89;73.03;99460.56;5072849;28;20054;-64
2021/03/17 05:02:10;;;;;;;14.45;11.20;;;;;;;4.75;73.12;99455.75;5074105;28;20044;-63
2021/03/17 05:04:39;;;;;;;12.20;9.75;;;;;;;4.66;73.26;99455.63;5075111;28;20048;-63
2021/03/17 05:07:07;;;;;;;13.45;10.77;;;;;;;4.76;73.32;99453.00;5075299;28;20090;-64
2021/03/17 05:09:34;;;;;;;13.98;11.07;;;;;;;4.71;73.33;99457.81;5074834;28;20044;-64
2021/03/17 05:12:03;;;;;;;11.82;9.30;;;;;;;4.70;73.00;99469.28;5074982;28;20047;-63
2021/03/17 05:14:32;;;;;;;11.73;9.18;;;;;;;4.47;73.26;99466.91;5074767;28;20041;-63
2021/03/17 05:17:01;;;;;;;11.43;9.30;;;;;;;4.53;73.53;99473.41;5074923;28;20048;-64
2021/03/17 05:19:29;;;;;;;13.75;9.52;;;;;;;4.52;73.43;99476.97;5074776;28;20504;-64
2021/03/17 05:21:57;;;;;;;14.20;10.45;;;;;;;4.60;73.50;99468.44;5074992;28;20056;-63
2021/03/17 05:24:26;;;;;;;12.90;10.35;;;;;;;4.51;73.45;99467.47;5074727;28;20044;-63
2021/03/17 05:26:54;;;;;;;16.52;10.48;;;;;;;4.47;73.62;99473.94;5077772;28;20079;-64
2021/03/17 05:29:23;;;;;;;12.73;9.80;;;;;;;4.50;73.50;99476.31;5086599;28;20039;-64
2021/03/17 05:31:52;;;;;;;13.80;9.90;;;;;;;4.54;73.52;99474.25;5085271;28;20638;-64
2021/03/17 05:34:20;;;;;;;11.50;9.60;;;;;;;4.49;73.46;99477.28;5074422;28;20063;-64
2021/03/17 05:36:48;;;;;;;13.38;9.98;;;;;;;4.37;73.65;99476.56;5074680;28;20044;-63
2021/03/17 05:39:15;;;;;;;14.25;10.80;;;;;;;4.36;73.90;99469.66;5074288;28;20055;-64
2021/03/17 05:41:42;;;;;;;13.15;10.00;;;;;;;4.30;73.88;99478.06;5074562;28;20051;-64
2021/03/17 05:44:10;;;;;;;14.73;10.43;;;;;;;4.29;73.99;99472.97;5074429;28;20507;-63
2021/03/17 05:46:38;;;;;;;11.70;9.10;;;;;;;4.37;74.03;99476.56;5074519;28;20062;-64
2021/03/17 05:49:05;;;;;;;12.23;10.10;;;;;;;4.35;73.93;99481.09;5074254;28;20123;-63
2021/03/17 05:51:34;;;;;;;14.85;11.20;;;;;;;4.42;73.81;99491.88;5073079;28;20045;-63
2021/03/17 05:54:06;;;;;;;12.77;9.52;;;;;;;4.42;73.92;99487.44;5074515;28;20076;-64
2021/03/17 05:56:33;;;;;;;11.90;9.57;;;;;;;4.42;73.59;99492.69;5073123;28;20040;-64
2021/03/17 05:59:01;;;;;;;14.23;10.13;;;;;;;4.48;73.67;99496.53;5074336;28;20051;-64
2021/03/17 06:01:28;;;;;;;13.02;9.73;;;;;;;4.50;73.85;99493.81;5074327;28;20053;-64
2021/03/17 06:03:58;;;;;;;15.45;11.00;;;;;;;4.53;73.37;99498.75;5074213;28;20037;-63
2021/03/17 06:06:28;;;;;;;13.95;10.07;;;;;;;4.59;73.44;99500.84;5074155;28;20049;-63
2021/03/17 06:09:00;;;;;;;14.90;10.70;;;;;;;4.67;73.36;99500.97;5074484;28;20139;-63
2021/03/17 06:11:27;;;;;;;14.85;10.90;;;;;;;4.72;73.38;99509.25;5071839;28;20048;-63
2021/03/17 06:13:57;;;;;;;12.68;9.85;;;;;;;4.66;73.36;99518.47;5074333;28;20041;-64
2021/03/17 06:16:25;;;;;;;15.38;10.88;;;;;;;4.70;73.26;99509.38;5072795;28;20496;-64
2021/03/17 06:18:56;;;;;;;16.15;11.02;;;;;;;4.66;73.09;99515.88;5074268;28;20036;-64
2021/03/17 06:21:23;;;;;;;13.40;10.75;;;;;;;4.68;73.04;99508.69;5072750;28;20127;-63
2021/03/17 06:23:52;;;;;;;14.48;10.63;;;;;;;4.71;73.23;99516.28;5074069;28;20037;-63
2021/03/17 06:26:20;;;;;;;13.95;9.90;;;;;;;4.69;72.66;99526.06;5074183;28;20050;-63
2021/03/17 06:28:48;;;;;;;15.13;10.52;;;;;;;4.72;73.23;99524.94;5073050;28;20036;-63
2021/03/17 06:31:19;;;;;;;14.45;10.65;;;;;;;4.81;73.20;99529.34;5074332;28;20115;-63
2021/03/17 06:33:46;;;;;;;14.30;9.30;;;;;;;4.98;73.24;99530.47;5074195;28;20513;-64
2021/03/17 06:36:15;;;;;;;14.65;11.23;;;;;;;5.02;72.57;99534.47;5073932;28;20044;-61
2021/03/17 06:38:43;;;;;;;13.65;10.00;;;;;;;5.09;72.68;99532.94;5073792;28;20082;-62
2021/03/17 06:41:11;;;;;;;15.68;10.25;;;;;;;5.09;72.26;99524.25;5072561;28;20570;-62
2021/03/17 06:43:40;;;;;;;13.85;10.63;;;;;;;5.12;72.43;99530.03;5074037;28;20076;-62
2021/03/17 06:46:08;;;;;;;11.63;9.73;;;;;;;5.16;72.05;99525.34;5073697;28;20045;-62
2021/03/17 06:48:54;;;;;;;15.55;10.35;;;;;;;5.09;71.93;99532.94;5073294;28;20075;-63
2021/03/17 06:51:22;;;;;;;13.82;10.00;;;;;;;5.00;72.13;99541.63;5073194;28;20041;-62
2021/03/17 06:53:51;;;;;;;14.82;10.27;;;;;;;5.07;72.05;99553.22;5073305;28;20040;-62
2021/03/17 06:56:21;;;;;;;15.10;10.68;;;;;;;5.09;72.17;99553.91;5073162;28;20518;-62
2021/03/17 06:58:50;;;;;;;16.80;11.65;;;;;;;5.01;72.20;99566.03;5073298;28;20044;-62
2021/03/17 07:01:32;;;;;;;15.18;11.05;;;;;;;4.99;72.61;99562.75;5071850;28;20044;-63
2021/03/17 07:04:02;;;;;;;17.98;11.70;;;;;;;4.95;72.56;99575.28;5072059;28;20060;-62
2021/03/17 07:06:29;;;;;;;15.45;11.70;;;;;;;4.94;72.69;99574.47;5073062;28;20045;-62
2021/03/17 07:08:57;;;;;;;16.08;11.27;;;;;;;5.06;72.72;99572.53;5071607;28;20044;-62
2021/03/17 07:11:28;;;;;;;16.55;11.93;;;;;;;5.25;72.60;99563.00;5072863;28;20037;-62
2021/03/17 07:14:00;;;;;;;18.65;12.57;;;;;;;5.38;72.24;99553.03;5073066;28;20041;-62
2021/03/17 07:16:33;;;;;;;15.85;11.80;;;;;;;5.39;71.73;99555.53;5073150;28;20066;-62
2021/03/17 07:19:33;;;;;;;18.23;12.18;;;;;;;5.21;71.77;99563.28;5072612;28;20064;-62
2021/03/17 07:22:08;;;;;;;17.40;12.23;;;;;;;5.28;72.17;99557.47;5072494;28;20046;-63
2021/03/17 07:24:36;;;;;;;18.45;12.32;;;;;;;5.24;71.80;99556.09;5072510;28;20047;-62
2021/03/17 07:27:14;;;;;;;15.95;11.57;;;;;;;5.19;72.16;99556.53;5072854;28;20070;-62
2021/03/17 07:29:43;;;;;;;16.15;10.70;;;;;;;5.28;72.23;99554.88;5072417;28;20047;-62
2021/03/17 07:32:10;;;;;;;15.85;12.32;;;;;;;5.39;72.35;99552.09;5072517;28;20383;-62
2021/03/17 07:34:37;;;;;;;14.90;10.70;;;;;;;5.34;71.96;99551.66;5072441;28;20059;-62
2021/03/17 07:37:06;;;;;;;14.27;10.85;;;;;;;5.43;71.95;99554.28;5071257;28;20051;-63
2021/03/17 07:39:35;;;;;;;15.25;10.80;;;;;;;5.59;71.76;99543.22;5072390;28;20045;-63
2021/03/17 07:42:05;;;;;;;19.85;12.75;;;;;;;5.71;71.41;99541.22;5072552;28;20041;-62
2021/03/17 07:44:35;;;;;;;17.27;11.65;;;;;;;5.77;71.06;99537.22;5072415;28;20040;-62
2021/03/17 07:47:05;;;;;;;15.40;11.10;;;;;;;5.74;70.98;99542.72;5072558;28;20452;-63
2021/03/17 07:49:47;;;;;;;13.40;10.35;;;;;;;5.80;70.96;99536.94;5072226;28;20044;-63
2021/03/17 07:52:19;;;;;;;15.02;11.07;;;;;;;5.91;70.70;99537.53;5081605;28;20042;-63
2021/03/17 07:54:50;;;;;;;14.30;10.90;;;;;;;5.95;70.60;99541.56;5091425;28;20074;-64
2021/03/17 07:57:18;;;;;;;16.30;11.15;;;;;;;5.95;70.61;99543.38;5092555;28;20452;-64
2021/03/17 07:59:54;;;;;;;14.73;9.75;;;;;;;5.88;70.51;99540.47;5092412;28;20448;-64
2021/03/17 08:02:22;;;;;;;14.73;10.10;;;;;;;6.03;70.34;99538.22;5092431;28;20066;-64
2021/03/17 08:04:51;;;;;;;13.90;9.95;;;;;;;6.12;70.03;99533.88;5092227;28;20092;-64
2021/03/17 08:07:19;;;;;;;15.63;10.93;;;;;;;6.02;69.98;99549.69;5092223;28;20054;-64
2021/03/17 08:09:46;;;;;;;14.93;11.00;;;;;;;5.97;70.29;99548.50;5090878;28;20094;-64
2021/03/17 08:12:13;;;;;;;12.85;9.98;;;;;;;5.81;70.55;99555.13;5092108;28;20437;-64
2021/03/17 08:14:42;;;;;;;12.57;9.18;;;;;;;5.78;70.39;99554.59;5092032;28;20040;-64
2021/03/17 08:17:10;;;;;;;11.73;8.95;;;;;;;5.79;70.77;99553.63;5092131;28;20044;-65
2021/03/17 08:19:46;;;;;;;12.43;8.77;;;;;;;5.86;70.54;99549.47;5092028;28;20097;-64
2021/03/17 08:22:14;;;;;;;15.45;10.25;;;;;;;5.93;70.32;99546.16;5092127;28;20040;-64
2021/03/17 08:24:42;;;;;;;11.93;8.35;;;;;;;5.91;70.22;99548.03;5091915;28;20075;-65
2021/03/17 08:27:20;;;;;;;12.32;8.68;;;;;;;5.89;70.27;99552.63;5091972;28;20046;-65
2021/03/17 08:29:49;;;;;;;11.68;8.90;;;;;;;5.85;70.30;99545.19;5092057;28;20074;-64
2021/03/17 08:32:18;;;;;;;8.88;7.05;;;;;;;5.70;69.87;99548.25;5090676;28;20048;-64
2021/03/17 08:34:54;;;;;;;10.15;7.93;;;;;;;5.65;70.13;99547.03;5084728;28;20093;-64
2021/03/17 08:37:41;;;;;;;7.63;6.45;;;;;;;5.67;70.28;99540.69;5075705;28;20048;-64
2021/03/17 08:40:46;;;;;;;8.88;6.82;;;;;;;5.80;69.73;99540.38;5075450;28;20051;-64
2021/03/17 08:43:44;;;;;;;12.73;7.70;;;;;;;5.98;69.40;99537.84;5075817;28;20131;-64
2021/03/17 08:46:14;;;;;;;8.70;7.10;;;;;;;6.11;69.26;99527.00;5075701;28;20041;-64
2021/03/17 08:48:58;;;;;;;11.18;8.18;;;;;;;6.28;69.31;99531.44;5075620;28;20493;-65
2021/03/17 08:52:05;;;;;;;11.95;9.00;;;;;;;6.33;68.54;99536.28;5075618;28;20055;-65
2021/03/17 08:54:56;;;;;;;11.63;8.57;;;;;;;6.38;68.16;99534.03;5075538;28;20051;-65
2021/03/17 08:57:23;;;;;;;12.27;9.23;;;;;;;6.41;68.44;99536.38;5075453;28;20051;-65
2021/03/17 08:59:52;;;;;;;11.20;9.05;;;;;;;6.39;68.48;99533.06;5074161;28;20567;-65
2021/03/17 09:02:20;;;;;;;11.18;9.80;;;;;;;6.33;68.90;99541.53;5074134;28;20045;-65
2021/03/17 09:04:49;;;;;;;12.77;9.60;;;;;;;6.42;68.57;99541.47;5075228;28;20123;-65
2021/03/17 09:07:16;;;;;;;12.75;9.55;;;;;;;6.33;68.79;99541.53;5075288;28;20040;-65
2021/03/17 09:09:52;;;;;;;13.35;10.27;;;;;;;6.41;68.93;99539.00;5074877;28;20051;-65
2021/03/17 09:12:40;;;;;;;14.73;9.77;;;;;;;6.47;68.92;99548.91;5073721;28;20071;-65
2021/03/17 09:15:14;;;;;;;12.57;9.38;;;;;;;6.34;68.66;99543.19;5076454;28;20051;-65
2021/03/17 09:17:46;;;;;;;12.25;10.13;;;;;;;6.19;69.28;99535.78;5085479;28;20078;-65
2021/03/17 09:20:23;;;;;;;14.30;11.02;;;;;;;5.99;69.45;99539.47;5085387;28;20068;-65
2021/03/17 09:23:04;;;;;;;13.65;10.68;;;;;;;6.05;69.62;99546.78;5075097;28;20511;-65
2021/03/17 09:25:33;;;;;;;13.68;10.57;;;;;;;6.01;69.26;99544.59;5073411;28;20049;-65
2021/03/17 09:28:04;;;;;;;15.05;11.15;;;;;;;6.11;69.51;99534.88;5074705;28;20052;-65
2021/03/17 09:30:35;;;;;;;12.63;9.15;;;;;;;6.25;69.18;99539.66;5074710;28;20486;-65
2021/03/17 09:33:07;;;;;;;13.52;9.85;;;;;;;6.35;68.95;99537.78;5074555;28;20040;-64
2021/03/17 09:35:35;;;;;;;12.63;10.05;;;;;;;6.30;68.79;99534.78;5074354;28;20119;-64
2021/03/17 09:38:05;;;;;;;13.25;9.85;;;;;;;6.21;69.04;99535.66;5074583;28;20381;-64
2021/03/17 09:40:38;;;;;;;11.57;9.50;;;;;;;6.26;68.77;99533.41;5074730;28;20048;-64
2021/03/17 09:43:21;;;;;;;15.77;10.13;;;;;;;6.33;69.14;99537.09;5074998;28;20048;-65
2021/03/17 09:45:47;;;;;;;15.73;11.38;;;;;;;6.41;68.50;99536.38;5074791;28;20448;-65
2021/03/17 09:48:16;;;;;;;14.90;11.32;;;;;;;6.52;68.02;99532.69;5073100;28;20044;-65
2021/03/17 09:50:44;;;;;;;12.48;9.82;;;;;;;6.57;68.64;99533.91;5074604;28;20044;-64
2021/03/17 09:53:13;;;;;;;12.90;10.07;;;;;;;6.70;68.08;99541.44;5074519;28;20048;-65
2021/03/17 09:55:41;;;;;;;15.07;11.23;;;;;;;6.75;68.26;99536.53;5074308;28;20041;-63
2021/03/17 09:58:12;;;;;;;14.40;11.02;;;;;;;7.03;68.17;99541.72;5074250;28;20106;-63
2021/03/17 10:00:39;;;;;;;13.48;10.38;;;;;;;7.20;68.00;99525.09;5074272;28;20379;-63
2021/03/17 10:03:11;;;;;;;9.10;7.90;;;;;;;7.03;66.87;99531.22;5074251;28;20120;-63
2021/03/17 10:05:39;;;;;;;9.63;7.35;;;;;;;6.89;66.46;99525.47;5074061;28;20503;-65
2021/03/17 10:08:06;;;;;;;8.48;7.28;;;;;;;6.92;66.40;99532.25;5073959;28;20127;-64
2021/03/17 10:10:34;;;;;;;9.05;7.22;;;;;;;6.85;65.75;99518.06;5074064;28;20487;-64
2021/03/17 10:13:02;;;;;;;10.35;7.18;;;;;;;6.92;65.69;99519.09;5073287;28;20045;-64
2021/03/17 10:15:29;;;;;;;8.48;6.45;;;;;;;7.13;65.12;99518.78;5074178;28;20040;-65
2021/03/17 10:17:57;;;;;;;8.32;6.95;;;;;;;7.53;64.64;99517.41;5073806;28;20124;-65
2021/03/17 10:20:27;;;;;;;7.07;5.65;;;;;;;7.95;63.94;99512.19;5073850;28;20398;-64
2021/03/17 10:22:58;;;;;;;6.25;5.45;;;;;;;8.29;63.40;99506.88;5073836;28;20067;-66
2021/03/17 10:25:27;;;;;;;7.32;5.95;;;;;;;8.29;63.72;99496.34;5073705;28;20588;-65
2021/03/17 10:27:59;;;;;;;6.22;4.90;;;;;;;8.21;62.18;99500.78;5073617;28;20045;-65
2021/03/17 10:30:29;;;;;;;4.95;4.45;;;;;;;8.00;63.11;99499.41;5073744;28;20047;-65
2021/03/17 10:33:00;;;;;;;6.05;4.30;;;;;;;7.53;62.97;99491.91;5073591;28;20032;-65
2021/03/17 10:35:28;;;;;;;7.38;5.60;;;;;;;7.41;63.61;99491.34;5073175;28;20410;-65
2021/03/17 10:37:55;;;;;;;6.50;4.43;;;;;;;7.57;64.26;99498.53;5072025;28;20040;-65
2021/03/17 10:40:24;;;;;;;5.53;4.35;;;;;;;7.79;64.08;99493.69;5073449;28;20040;-65
2021/03/17 10:42:53;;;;;;;4.20;3.67;;;;;;;7.91;62.97;99497.69;5073347;28;20063;-65
2021/03/17 10:45:22;;;;;;;3.92;3.13;;;;;;;8.07;62.76;99494.28;5073253;28;20123;-65
2021/03/17 10:47:51;;;;;;;2.95;2.63;;;;;;;7.82;62.56;99486.31;5073151;28;20571;-64
2021/03/17 10:50:27;;;;;;;2.65;2.25;;;;;;;7.48;62.54;99490.75;5073344;28;20398;-64
2021/03/17 10:52:54;;;;;;;3.05;2.65;;;;;;;7.44;63.73;99504.22;5073451;28;20433;-64
2021/03/17 10:55:23;;;;;;;2.85;2.28;;;;;;;7.25;63.38;99493.06;5072996;28;20051;-65
2021/03/17 10:57:51;;;;;;;4.07;2.22;;;;;;;7.11;63.70;99497.91;5071173;28;20049;-65
2021/03/17 11:00:25;;;;;;;1.63;1.52;;;;;;;6.92;64.34;99498.09;5073098;28;20118;-65
2021/03/17 11:02:53;;;;;;;2.77;1.90;;;;;;;6.80;64.80;99497.50;5073996;28;20036;-64
2021/03/17 11:05:26;;;;;;;2.25;1.52;;;;;;;6.83;64.82;99493.75;5073231;28;20560;-64
2021/03/17 11:08:09;;;;;;;1.50;1.40;;;;;;;6.76;64.68;99497.94;5073153;28;20045;-65
2021/03/17 11:10:47;;;;;;;2.30;1.63;;;;;;;6.81;64.40;99493.88;5073148;28;20052;-65
2021/03/17 11:13:39;;;;;;;1.63;1.52;;;;;;;6.81;64.53;99488.63;5073077;28;20044;-65
2021/03/17 11:16:12;;;;;;;1.65;1.55;;;;;;;6.92;64.67;99492.81;5072753;28;20045;-65
2021/03/17 11:18:47;;;;;;;2.05;1.90;;;;;;;7.08;64.15;99486.88;5072636;28;20054;-65
2021/03/17 11:21:22;;;;;;;2.10;1.90;;;;;;;7.40;64.05;99479.19;5072701;28;20048;-65
2021/03/17 11:23:51;;;;;;;2.45;2.25;;;;;;;7.83;63.86;99484.50;5072722;28;20046;-65
2021/03/17 11:26:22;;;;;;;2.42;1.90;;;;;;;8.24;62.81;99476.72;5072702;28;20214;-65
2021/03/17 11:28:50;;;;;;;1.65;1.55;;;;;;;8.24;60.91;99482.81;5072792;28;20046;-65
2021/03/17 11:31:27;;;;;;;2.08;1.90;;;;;;;8.23;59.42;99478.53;5072516;28;20062;-63
2021/03/17 11:33:55;;;;;;;2.60;2.40;;;;;;;8.15;60.44;99476.72;5072250;28;20043;-65
2021/03/17 11:36:23;;;;;;;2.47;2.00;;;;;;;8.16;59.20;99485.44;5072650;28;20044;-65
2021/03/17 11:38:50;;;;;;;2.25;1.77;;;;;;;8.11;58.61;99479.81;5072367;28;20514;-64
2021/03/17 11:41:18;;;;;;;2.55;2.33;;;;;;;8.25;58.36;99473.13;5072325;28;20041;-64
2021/03/17 11:43:45;;;;;;;4.30;3.35;;;;;;;8.57;58.06;99467.94;5072341;28;20052;-64
2021/03/17 11:46:13;;;;;;;5.13;2.40;;;;;;;8.80;57.33;99465.47;5072079;28;20051;-64
2021/03/17 11:48:43;;;;;;;2.58;2.38;;;;;;;8.89;56.51;99447.84;5070898;28;20131;-65
2021/03/17 11:51:12;;;;;;;2.38;2.17;;;;;;;8.90;55.20;99458.22;5072340;28;20123;-65